createdAt,value
2022-10-05T00:01:24.297Z,57.35
2022-10-05T00:04:18.716Z,57.36
2022-10-05T00:07:14.951Z,57.39
2022-10-05T00:10:15.840Z,57.50
2022-10-05T00:13:07.634Z,57.28
2022-10-05T00:16:06.976Z,57.19
2022-10-05T00:18:57.120Z,57.26
2022-10-05T00:21:47.159Z,57.30
2022-10-05T00:24:37.440Z,57.38
2022-10-05T00:27:32.873Z,57.52
2022-10-05T00:30:24.886Z,57.54
2022-10-05T00:33:15.181Z,57.51
2022-10-05T00:36:07.729Z,57.48
2022-10-05T00:38:58.640Z,57.35
2022-10-05T00:42:03.176Z,57.29
2022-10-05T00:44:57.576Z,57.23
2022-10-05T00:47:58.778Z,57.21
2022-10-05T00:51:05.257Z,57.33
2022-10-05T00:54:12.617Z,57.41
2022-10-05T00:57:20.288Z,57.45
2022-10-05T01:00:14.507Z,57.50
2022-10-05T01:03:15.548Z,57.51
2022-10-05T01:06:14.062Z,57.64
2022-10-05T01:09:15.360Z,57.75
2022-10-05T01:12:15.309Z,57.78
2022-10-05T01:15:10.446Z,57.83
2022-10-05T01:18:07.014Z,57.82
2022-10-05T01:21:04.667Z,57.81
2022-10-05T01:24:27.962Z,57.70
2022-10-05T01:27:38.265Z,57.73
2022-10-05T01:30:31.562Z,57.70
2022-10-05T01:33:31.850Z,57.69
2022-10-05T01:36:29.820Z,57.70
2022-10-05T01:39:26.249Z,57.71
2022-10-05T01:42:29.967Z,57.79
2022-10-05T01:45:29.969Z,57.73
2022-10-05T01:48:27.671Z,57.66
2022-10-05T01:51:28.805Z,57.58
2022-10-05T01:54:32.016Z,57.59
2022-10-05T01:57:35.871Z,57.61
2022-10-05T02:00:26.611Z,57.64
2022-10-05T02:03:23.470Z,57.57
2022-10-05T02:06:18.900Z,57.57
2022-10-05T02:09:16.352Z,57.67
2022-10-05T02:12:13.278Z,57.66
2022-10-05T02:15:13.897Z,57.70
2022-10-05T02:18:11.597Z,57.73
2022-10-05T02:21:04.277Z,57.77
2022-10-05T02:23:59.903Z,57.72
2022-10-05T02:26:52.581Z,57.71
2022-10-05T02:29:48.279Z,57.70
2022-10-05T02:32:42.606Z,57.68
2022-10-05T02:35:33.600Z,57.68
2022-10-05T02:38:32.558Z,57.64
2022-10-05T02:41:34.570Z,57.64
2022-10-05T02:44:32.446Z,57.62
2022-10-05T02:47:29.890Z,57.65
2022-10-05T02:50:27.283Z,57.66
2022-10-05T02:53:27.338Z,57.65
2022-10-05T02:56:27.486Z,57.71
2022-10-05T02:59:24.625Z,57.73
2022-10-05T03:02:20.618Z,57.73
2022-10-05T03:05:19.921Z,57.65
2022-10-05T03:08:16.918Z,57.80
2022-10-05T03:11:16.035Z,57.83
2022-10-05T03:14:14.710Z,57.81
2022-10-05T03:17:14.067Z,57.83
2022-10-05T03:20:18.903Z,57.87
2022-10-05T03:23:15.582Z,57.82
2022-10-05T03:26:19.942Z,57.65
2022-10-05T03:29:20.414Z,57.62
2022-10-05T03:32:19.949Z,57.65
2022-10-05T03:35:16.284Z,57.70
2022-10-05T03:38:15.137Z,57.70
2022-10-05T03:41:13.786Z,57.70
2022-10-05T03:44:19.773Z,57.62
2022-10-05T03:47:15.697Z,57.57
2022-10-05T03:50:24.820Z,57.51
2022-10-05T03:53:20.609Z,57.49
2022-10-05T03:56:17.609Z,57.64
2022-10-05T03:59:16.230Z,57.75
2022-10-05T04:02:13.867Z,57.86
2022-10-05T04:05:07.546Z,57.95
2022-10-05T04:08:01.114Z,58.01
2022-10-05T04:10:53.566Z,58.06
2022-10-05T04:13:53.025Z,58.10
2022-10-05T04:16:46.396Z,58.08
2022-10-05T04:19:41.969Z,58.08
2022-10-05T04:22:38.650Z,58.10
2022-10-05T04:25:33.526Z,58.12
2022-10-05T04:28:32.142Z,58.11
2022-10-05T04:31:36.973Z,58.13
2022-10-05T04:34:51.016Z,58.20
2022-10-05T04:37:49.764Z,58.28
2022-10-05T04:41:02.807Z,58.28
2022-10-05T04:44:10.137Z,58.20
2022-10-05T04:47:18.428Z,58.26
2022-10-05T04:50:29.702Z,58.34
2022-10-05T04:53:34.846Z,58.34
2022-10-05T04:56:34.614Z,58.33
2022-10-05T04:59:50.724Z,58.48
2022-10-05T05:03:02.910Z,58.45
2022-10-05T05:06:16.960Z,58.41
2022-10-05T05:09:25.018Z,58.39
2022-10-05T05:12:26.586Z,58.56
2022-10-05T05:15:29.658Z,58.65
2022-10-05T05:18:54.638Z,58.73
2022-10-05T05:21:53.227Z,58.72
2022-10-05T05:24:57.767Z,58.77
2022-10-05T05:27:54.824Z,59.14
2022-10-05T05:30:49.874Z,58.69
2022-10-05T05:33:49.101Z,58.45
2022-10-05T05:36:55.888Z,58.49
2022-10-05T05:39:57.643Z,58.27
2022-10-05T05:42:55.784Z,57.91
2022-10-05T05:45:53.642Z,57.90
2022-10-05T05:48:45.746Z,58.00
2022-10-05T05:51:40.523Z,57.95
2022-10-05T05:54:37.774Z,57.83
2022-10-05T05:57:33.512Z,57.84
2022-10-05T06:00:26.034Z,57.77
2022-10-05T06:03:24.162Z,57.49
2022-10-05T06:06:17.029Z,57.61
2022-10-05T06:09:22.422Z,57.54
2022-10-05T06:12:23.744Z,57.56
2022-10-05T06:15:24.326Z,57.40
2022-10-05T06:18:17.061Z,57.60
2022-10-05T06:21:14.222Z,58.09
2022-10-05T06:24:10.379Z,57.99
2022-10-05T06:27:26.014Z,57.84
2022-10-05T06:30:18.760Z,57.82
2022-10-05T06:33:24.085Z,57.82
2022-10-05T06:36:27.245Z,57.75
2022-10-05T06:39:47.187Z,57.72
2022-10-05T06:42:54.213Z,57.55
2022-10-05T06:46:07.265Z,57.57
2022-10-05T06:49:24.385Z,57.65
2022-10-05T06:52:44.418Z,57.84
2022-10-05T06:55:47.004Z,58.03
2022-10-05T06:58:51.105Z,57.99
2022-10-05T07:01:54.123Z,58.06
2022-10-05T07:05:13.261Z,58.12
2022-10-05T07:08:05.528Z,58.14
2022-10-05T07:11:05.710Z,58.12
2022-10-05T07:14:22.492Z,58.18
2022-10-05T07:17:27.271Z,58.15
2022-10-05T07:20:27.933Z,58.00
2022-10-05T07:23:30.404Z,57.99
2022-10-05T07:26:24.517Z,57.90
2022-10-05T07:29:24.449Z,57.82
2022-10-05T07:32:23.673Z,57.74
2022-10-05T07:35:37.690Z,57.64
2022-10-05T07:38:32.200Z,57.54
2022-10-05T07:41:32.549Z,57.54
2022-10-05T07:44:32.176Z,57.46
2022-10-05T07:47:32.928Z,57.48
2022-10-05T07:50:27.787Z,57.53
2022-10-05T07:53:21.386Z,57.31
2022-10-05T07:56:21.988Z,57.03
2022-10-05T07:59:23.651Z,56.51
2022-10-05T08:02:23.798Z,56.75
2022-10-05T08:05:20.246Z,56.70
2022-10-05T08:08:20.547Z,56.68
2022-10-05T08:11:18.534Z,56.66
2022-10-05T08:14:20.487Z,56.46
2022-10-05T08:17:23.986Z,56.37
2022-10-05T08:20:40.093Z,56.31
2022-10-05T08:23:38.880Z,56.22
2022-10-05T08:26:37.653Z,56.20
2022-10-05T08:29:33.689Z,56.23
2022-10-05T08:32:26.886Z,56.17
2022-10-05T08:35:28.404Z,56.11
2022-10-05T08:38:21.729Z,56.06
2022-10-05T08:41:42.451Z,55.97
2022-10-05T08:45:05.925Z,55.90
2022-10-05T08:48:26.864Z,56.13
2022-10-05T08:51:44.602Z,56.22
2022-10-05T08:54:57.807Z,55.86
2022-10-05T08:58:26.694Z,55.81
2022-10-05T09:01:27.268Z,55.35
2022-10-05T09:04:30.378Z,54.57
2022-10-05T09:07:53.836Z,53.16
2022-10-05T09:11:03.806Z,52.39
2022-10-05T09:14:26.176Z,51.63
2022-10-05T09:17:42.374Z,50.82
2022-10-05T09:20:47.091Z,50.56
2022-10-05T09:23:44.931Z,49.72
2022-10-05T09:26:59.239Z,49.58
2022-10-05T09:30:15.595Z,49.11
2022-10-05T09:33:42.610Z,48.89
2022-10-05T09:37:11.692Z,49.27
2022-10-05T09:40:40.606Z,49.68
2022-10-05T09:44:00.031Z,49.66
2022-10-05T09:47:11.544Z,49.61
2022-10-05T09:50:20.734Z,49.73
2022-10-05T09:53:38.590Z,49.79
2022-10-05T09:57:04.219Z,49.98
2022-10-05T10:00:16.555Z,50.11
2022-10-05T10:03:27.499Z,50.31
2022-10-05T10:06:26.278Z,50.53
2022-10-05T10:09:29.699Z,50.59
2022-10-05T10:12:35.245Z,50.57
2022-10-05T10:15:52.901Z,50.60
2022-10-05T10:19:07.875Z,50.89
2022-10-05T10:22:22.362Z,51.12
2022-10-05T10:25:29.803Z,51.11
2022-10-05T10:29:10.023Z,51.16
2022-10-05T10:32:34.520Z,51.17
2022-10-05T10:35:35.373Z,51.31
2022-10-05T10:38:58.696Z,51.51
2022-10-05T10:42:05.230Z,51.60
2022-10-05T10:45:19.957Z,51.66
2022-10-05T10:48:33.758Z,51.96
2022-10-05T10:51:50.243Z,52.14
2022-10-05T10:55:00.140Z,52.27
2022-10-05T10:58:22.802Z,52.43
2022-10-05T11:01:34.074Z,52.64
2022-10-05T11:04:56.269Z,52.69
2022-10-05T11:08:17.386Z,52.75
2022-10-05T11:11:20.634Z,52.63
2022-10-05T11:14:51.736Z,52.67
2022-10-05T11:17:59.407Z,52.76
2022-10-05T11:21:21.773Z,52.81
2022-10-05T11:24:41.076Z,52.85
2022-10-05T11:28:01.106Z,52.60
2022-10-05T11:31:13.855Z,52.75
2022-10-05T11:34:26.604Z,52.84
2022-10-05T11:37:58.998Z,52.50
2022-10-05T11:41:15.156Z,52.47
2022-10-05T11:44:29.089Z,52.37
2022-10-05T11:47:25.645Z,52.49
2022-10-05T11:50:22.304Z,52.71
2022-10-05T11:53:19.705Z,52.77
2022-10-05T11:56:21.997Z,52.93
2022-10-05T11:59:20.929Z,53.20
2022-10-05T12:02:41.392Z,52.98
2022-10-05T12:05:39.471Z,53.03
2022-10-05T12:08:40.885Z,53.12
2022-10-05T12:11:47.675Z,53.24
2022-10-05T12:14:48.825Z,52.98
2022-10-05T12:17:44.042Z,53.17
2022-10-05T12:20:39.917Z,53.46
2022-10-05T12:23:37.278Z,53.55
2022-10-05T12:26:32.396Z,53.72
2022-10-05T12:29:28.662Z,53.78
2022-10-05T12:32:24.115Z,53.90
2022-10-05T12:35:43.559Z,54.03
2022-10-05T12:38:40.073Z,53.91
2022-10-05T12:41:36.686Z,53.92
2022-10-05T12:44:43.957Z,54.01
2022-10-05T12:47:43.147Z,54.08
2022-10-05T12:50:40.271Z,54.14
2022-10-05T12:53:43.829Z,54.02
2022-10-05T12:56:43.217Z,53.92
2022-10-05T12:59:43.737Z,54.02
2022-10-05T13:02:42.392Z,54.05
2022-10-05T13:05:38.787Z,54.06
2022-10-05T13:08:39.066Z,54.24
2022-10-05T13:11:37.346Z,54.29
2022-10-05T13:14:46.703Z,54.29
2022-10-05T13:17:45.836Z,54.29
2022-10-05T13:20:44.213Z,54.46
2022-10-05T13:23:43.663Z,54.50
2022-10-05T13:26:37.542Z,54.59
2022-10-05T13:29:34.417Z,54.71
2022-10-05T13:32:29.508Z,54.92
2022-10-05T13:35:32.634Z,54.95
2022-10-05T13:38:36.281Z,55.01
2022-10-05T13:41:35.223Z,55.22
2022-10-05T13:44:33.819Z,55.39
2022-10-05T13:47:30.396Z,55.39
2022-10-05T13:50:23.565Z,55.35
2022-10-05T13:53:21.600Z,55.39
2022-10-05T13:56:22.420Z,55.53
2022-10-05T13:59:24.634Z,55.52
2022-10-05T14:02:21.730Z,55.41
2022-10-05T14:05:21.117Z,55.48
2022-10-05T14:08:18.911Z,55.52
2022-10-05T14:11:27.612Z,55.54
2022-10-05T14:14:26.533Z,55.55
2022-10-05T14:17:19.324Z,55.63
2022-10-05T14:20:23.909Z,55.72
2022-10-05T14:23:26.032Z,55.76
2022-10-05T14:26:34.110Z,55.59
2022-10-05T14:29:35.260Z,55.67
2022-10-05T14:32:27.335Z,55.44
2022-10-05T14:35:20.797Z,55.48
2022-10-05T14:38:22.202Z,55.49
2022-10-05T14:41:25.253Z,55.53
2022-10-05T14:47:25.746Z,55.41
2022-10-05T14:50:25.405Z,55.72
2022-10-05T14:53:21.242Z,55.76
2022-10-05T14:56:33.821Z,55.99
2022-10-05T14:59:46.830Z,56.17
2022-10-05T15:03:03.709Z,56.31
2022-10-05T15:05:58.876Z,56.41
2022-10-05T15:09:17.423Z,56.61
2022-10-05T15:12:08.954Z,56.72
2022-10-05T15:15:05.971Z,56.85
2022-10-05T15:18:00.948Z,56.90
2022-10-05T15:20:56.904Z,56.85
2022-10-05T15:23:53.784Z,56.91
2022-10-05T15:26:52.822Z,56.92
2022-10-05T15:30:00.617Z,57.16
2022-10-05T15:33:05.326Z,57.27
2022-10-05T15:36:20.313Z,57.06
2022-10-05T15:39:19.717Z,57.13
2022-10-05T15:42:15.333Z,57.26
2022-10-05T15:45:15.218Z,57.18
2022-10-05T15:48:09.291Z,57.24
2022-10-05T15:51:07.230Z,57.29
2022-10-05T15:54:17.415Z,57.43
2022-10-05T15:57:16.557Z,57.51
2022-10-05T16:00:13.371Z,57.70
2022-10-05T16:03:13.249Z,57.60
2022-10-05T16:06:29.363Z,57.66
2022-10-05T16:09:38.727Z,57.65
2022-10-05T16:12:47.390Z,57.53
2022-10-05T16:15:42.964Z,57.64
2022-10-05T16:18:57.622Z,57.65
2022-10-05T16:21:56.589Z,57.70
2022-10-05T16:25:03.410Z,57.88
2022-10-05T16:28:08.175Z,58.00
2022-10-05T16:31:04.012Z,58.11
2022-10-05T16:34:06.659Z,58.27
2022-10-05T16:37:05.014Z,58.27
2022-10-05T16:40:00.886Z,58.21
2022-10-05T16:43:02.595Z,58.22
2022-10-05T16:46:04.527Z,58.35
2022-10-05T16:49:04.290Z,58.52
2022-10-05T16:52:00.868Z,58.58
2022-10-05T16:54:54.939Z,58.68
2022-10-05T16:57:52.602Z,58.76
2022-10-05T17:01:00.878Z,58.69
2022-10-05T17:04:05.642Z,58.66
2022-10-05T17:07:17.157Z,58.69
2022-10-05T17:10:27.867Z,58.77
2022-10-05T17:13:36.493Z,58.77
2022-10-05T17:16:37.561Z,58.83
2022-10-05T17:22:30.347Z,58.91
2022-10-05T17:25:29.159Z,59.02
2022-10-05T17:28:37.115Z,59.12
2022-10-05T17:31:27.692Z,59.06
2022-10-05T17:34:29.902Z,59.19
2022-10-05T17:37:35.568Z,59.07
2022-10-05T17:40:38.975Z,59.32
2022-10-05T17:43:30.796Z,59.35
2022-10-05T17:46:40.246Z,59.40
2022-10-05T17:50:17.572Z,59.35
2022-10-05T17:53:49.246Z,59.51
2022-10-05T17:57:19.334Z,59.69
2022-10-05T18:00:50.345Z,59.80
2022-10-05T18:03:43.056Z,59.80
2022-10-05T18:06:38.340Z,59.85
2022-10-05T18:09:52.292Z,59.90
2022-10-05T18:12:51.677Z,59.95
2022-10-05T18:15:51.652Z,60.02
2022-10-05T18:18:59.377Z,59.95
2022-10-05T18:22:05.996Z,59.97
2022-10-05T18:25:05.968Z,60.01
2022-10-05T18:28:15.008Z,59.89
2022-10-05T18:31:23.653Z,59.76
2022-10-05T18:34:30.549Z,59.61
2022-10-05T18:37:31.733Z,59.64
2022-10-05T18:40:43.662Z,59.60
2022-10-05T18:43:41.173Z,59.63
2022-10-05T18:46:43.949Z,59.65
2022-10-05T18:49:49.958Z,59.70
2022-10-05T18:52:51.678Z,59.68
2022-10-05T18:55:47.364Z,59.61
2022-10-05T18:58:44.093Z,59.36
2022-10-05T19:01:52.322Z,59.35
2022-10-05T19:04:54.816Z,59.18
2022-10-05T19:07:59.472Z,59.06
2022-10-05T19:10:56.548Z,59.14
2022-10-05T19:13:54.899Z,59.18
2022-10-05T19:16:55.873Z,59.40
2022-10-05T19:20:04.267Z,59.66
2022-10-05T19:23:15.394Z,59.32
2022-10-05T19:26:15.284Z,58.99
2022-10-05T19:29:16.133Z,58.47
2022-10-05T19:32:17.675Z,58.30
2022-10-05T19:35:18.318Z,57.92
2022-10-05T19:38:22.840Z,57.56
2022-10-05T19:41:18.577Z,57.25
2022-10-05T19:44:29.652Z,57.28
2022-10-05T19:47:30.911Z,57.25
2022-10-05T19:50:29.798Z,57.51
2022-10-05T19:53:27.898Z,57.32
2022-10-05T19:56:25.247Z,57.44
2022-10-05T19:59:19.439Z,57.34
2022-10-05T20:02:13.145Z,57.49
2022-10-05T20:05:10.102Z,57.58
2022-10-05T20:08:01.469Z,57.46
2022-10-05T20:11:09.507Z,57.37
2022-10-05T20:14:20.166Z,57.47
2022-10-05T20:17:46.790Z,57.56
2022-10-05T20:20:45.808Z,57.45
2022-10-05T20:23:38.863Z,57.40
2022-10-05T20:27:01.145Z,57.19
2022-10-05T20:29:51.856Z,57.18
2022-10-05T20:32:42.186Z,57.31
2022-10-05T20:35:32.405Z,57.16
2022-10-05T20:38:23.016Z,57.01
2022-10-05T20:41:13.827Z,57.18
2022-10-05T20:44:03.620Z,57.10
2022-10-05T20:46:55.780Z,56.93
2022-10-05T20:49:46.712Z,56.86
2022-10-05T20:52:37.879Z,56.91
2022-10-05T20:55:31.502Z,56.93
2022-10-05T20:58:21.879Z,56.72
2022-10-05T21:01:20.238Z,56.73
2022-10-05T21:04:10.367Z,56.70
2022-10-05T21:07:01.141Z,56.58
2022-10-05T21:09:51.635Z,56.45
2022-10-05T21:12:42.211Z,56.65
2022-10-05T21:15:32.642Z,56.59
2022-10-05T21:18:22.994Z,56.68
2022-10-05T21:21:13.215Z,56.49
2022-10-05T21:24:02.986Z,56.49
2022-10-05T21:26:53.629Z,56.61
2022-10-05T21:29:44.236Z,56.49
2022-10-05T21:32:34.166Z,56.18
2022-10-05T21:35:24.331Z,56.33
2022-10-05T21:38:14.341Z,55.92
2022-10-05T21:41:04.952Z,55.89
2022-10-05T21:43:55.509Z,56.08
2022-10-05T21:46:45.934Z,55.88
2022-10-05T21:49:36.960Z,56.17
2022-10-05T21:52:27.371Z,56.06
2022-10-05T21:55:18.015Z,55.89
2022-10-05T21:58:08.606Z,56.07
2022-10-05T22:00:58.690Z,55.69
2022-10-05T22:03:48.310Z,55.64
2022-10-05T22:06:38.663Z,55.19
2022-10-05T22:09:28.549Z,55.06
2022-10-05T22:12:20.292Z,55.27
2022-10-05T22:15:12.335Z,55.38
2022-10-05T22:18:02.722Z,55.44
2022-10-05T22:20:54.213Z,55.54
2022-10-05T22:23:46.160Z,55.64
2022-10-05T22:26:36.235Z,55.75
2022-10-05T22:29:26.600Z,56.02
2022-10-05T22:32:17.606Z,55.84
2022-10-05T22:35:11.780Z,55.60
2022-10-05T22:38:01.887Z,55.58
2022-10-05T22:40:52.162Z,55.51
2022-10-05T22:43:42.902Z,55.47
2022-10-05T22:46:33.153Z,55.53
2022-10-05T22:49:23.261Z,55.61
2022-10-05T22:52:13.272Z,55.67
2022-10-05T22:55:03.725Z,55.74
2022-10-05T22:57:53.607Z,55.86
2022-10-05T23:00:59.095Z,55.71
2022-10-05T23:03:49.791Z,55.70
2022-10-05T23:06:39.638Z,55.66
2022-10-05T23:09:29.720Z,55.50
2022-10-05T23:12:19.952Z,55.65
2022-10-05T23:15:12.305Z,56.05
2022-10-05T23:18:02.268Z,55.86
2022-10-05T23:20:57.440Z,55.82
2022-10-05T23:23:51.181Z,55.93
2022-10-05T23:26:41.409Z,55.96
2022-10-05T23:29:31.641Z,55.95
2022-10-05T23:32:22.029Z,56.03
2022-10-05T23:35:13.634Z,55.78
2022-10-05T23:38:03.794Z,55.58
2022-10-05T23:40:53.731Z,55.47
2022-10-05T23:43:44.604Z,55.44
2022-10-05T23:46:34.481Z,55.43
2022-10-05T23:49:24.243Z,55.44
2022-10-05T23:52:14.690Z,55.38
2022-10-05T23:55:05.136Z,55.28
2022-10-05T23:57:55.131Z,55.32
